Main page
METAR-TAF:

METAR-TAF

Airports :

Eloy Alfaro International Airport

Manta, Ecuador

latitude: 00-57S, longitude: 080-41W, elevation: 13 m

Current weather observation

The report was made 31 minutes ago, at 05:00 UTC
Wind 7 kt from the South/Southwest
Temperature 24°C
Humidity 78%
Pressure 1012 hPa
Visibility 10 km or more
Broken clouds at a height of 2300 ft

METAR: SEMT 210500Z 21007KT 9999 BKN023 24/20 Q1012 RMK A2988

Time: 00:31 (05:31 UTC)

Forecast

The report was made 7 hours and 1 minutes ago, at 22:30 UTC
Forecast valid from 21 at 00 UTC to 21 at 24 UTC
Wind 8 kt from the South
Visibility 10 km or more
Broken clouds at a height of 2000 ft
Becoming
from 21 at 12 UTC to 21 at 14 UTC
Wind 10 kt from the West
Scattered clouds at a height of 2300 ft
Becoming
from 21 at 17 UTC to 21 at 19 UTC
Broken clouds at a height of 2300 ft

TAF: SEMT 202230Z 2100/2124 19008KT 9999 BKN020 BECMG 2112/2114 27010KT SCT023 BECMG 2117/2119 BKN023 TX29/2120Z TN21/2110Z

Weather observations and forecasts of more than 4000 airports (METAR and TAF reports).

The available stations are represented by yellow and red dots on the map.

Hover mouse over dot to see the name of the station.

Then click to see weather observations and forecasts.

To change the map : click on the green buttons with a black cross to zoom in, on the green button with a dash to zoom out, or on the green arrows for adjacent maps.


METAR-TAF: